createdAt,value
2018-01-08T00:01:37.896Z,102420.32
2018-01-08T00:04:05.511Z,102415.78
2018-01-08T00:06:33.024Z,102417.98
2018-01-08T00:09:00.584Z,102421.15
2018-01-08T00:11:28.159Z,102420.17
2018-01-08T00:13:55.688Z,102425.67
2018-01-08T00:16:23.266Z,102423.15
2018-01-08T00:18:50.822Z,102417.86
2018-01-08T00:21:18.388Z,102410.14
2018-01-08T00:23:45.933Z,102408.05
2018-01-08T00:26:13.734Z,102411.63
2018-01-08T00:28:41.300Z,102411.13
2018-01-08T00:31:08.902Z,102414.38
2018-01-08T00:33:36.453Z,102410.80
2018-01-08T00:36:04.098Z,102408.69
2018-01-08T00:38:31.674Z,102406.02
2018-01-08T00:40:59.230Z,102402.61
2018-01-08T00:43:26.834Z,102396.58
2018-01-08T00:45:54.390Z,102404.23
2018-01-08T00:48:21.920Z,102398.44
2018-01-08T00:50:49.512Z,102382.70
2018-01-08T00:53:17.062Z,102386.53
2018-01-08T00:55:44.609Z,102381.41
2018-01-08T00:58:12.180Z,102382.86
2018-01-08T01:00:39.816Z,102373.13
2018-01-08T01:03:07.420Z,102372.13
2018-01-08T01:05:35.027Z,102363.28
2018-01-08T01:08:02.577Z,102362.88
2018-01-08T01:10:30.161Z,102366.29
2018-01-08T01:12:57.710Z,102355.42
2018-01-08T01:15:25.286Z,102362.81
2018-01-08T01:17:52.858Z,102363.13
2018-01-08T01:20:20.538Z,102358.91
2018-01-08T01:22:48.145Z,102360.34
2018-01-08T01:25:15.696Z,102350.30
2018-01-08T01:27:43.216Z,102352.72
2018-01-08T01:30:10.804Z,102346.63
2018-01-08T01:32:38.326Z,102349.55
2018-01-08T01:35:05.868Z,102343.00
2018-01-08T01:37:33.475Z,102335.91
2018-01-08T01:40:01.016Z,102338.42
2018-01-08T01:42:28.527Z,102341.77
2018-01-08T01:44:56.095Z,102344.84
2018-01-08T01:47:23.613Z,102349.89
2018-01-08T01:49:51.144Z,102350.04
2018-01-08T01:52:18.711Z,102348.27
2018-01-08T01:54:46.322Z,102348.58
2018-01-08T01:57:13.872Z,102345.67
2018-01-08T01:59:41.437Z,102350.52
2018-01-08T02:02:09.023Z,102346.62
2018-01-08T02:04:36.542Z,102345.99
2018-01-08T02:07:04.100Z,102352.16
2018-01-08T02:09:31.658Z,102345.81
2018-01-08T02:11:59.196Z,102353.87
2018-01-08T02:14:26.939Z,102353.05
2018-01-08T02:16:54.538Z,102351.40
2018-01-08T02:19:22.084Z,102340.95
2018-01-08T02:21:49.644Z,102353.10
2018-01-08T02:24:17.181Z,102343.88
2018-01-08T02:26:44.799Z,102348.09
2018-01-08T02:29:12.365Z,102345.73
2018-01-08T02:31:39.928Z,102351.98
2018-01-08T02:34:07.463Z,102346.39
2018-01-08T02:36:35.044Z,102347.37
2018-01-08T02:39:02.604Z,102349.22
2018-01-08T02:41:30.143Z,102352.70
2018-01-08T02:43:57.819Z,102354.73
2018-01-08T02:46:25.378Z,102356.69
2018-01-08T02:48:52.919Z,102358.65
2018-01-08T02:51:20.440Z,102355.37
2018-01-08T02:53:48.017Z,102353.84
2018-01-08T02:56:15.583Z,102359.45
2018-01-08T02:58:43.165Z,102359.36
2018-01-08T03:01:10.712Z,102360.83
2018-01-08T03:03:38.245Z,102358.95
2018-01-08T03:06:05.808Z,102358.78
2018-01-08T03:08:33.417Z,102358.78
2018-01-08T03:11:00.927Z,102354.83
2018-01-08T03:13:28.435Z,102355.63
2018-01-08T03:15:56.037Z,102354.16
2018-01-08T03:18:23.554Z,102355.14
2018-01-08T03:20:51.083Z,102360.98
2018-01-08T03:23:18.789Z,102361.05
2018-01-08T03:25:46.332Z,102358.45
2018-01-08T03:28:13.842Z,102362.22
2018-01-08T03:30:41.458Z,102362.45
2018-01-08T03:33:09.018Z,102366.52
2018-01-08T03:35:36.665Z,102361.14
2018-01-08T03:38:04.277Z,102361.71
2018-01-08T03:40:31.894Z,102358.45
2018-01-08T03:42:59.450Z,102366.56
2018-01-08T03:45:27.031Z,102372.20
2018-01-08T03:47:54.577Z,102367.46
2018-01-08T03:50:22.116Z,102364.86
2018-01-08T03:52:49.759Z,102376.09
2018-01-08T03:55:17.369Z,102368.70
2018-01-08T03:57:44.972Z,102372.02
2018-01-08T04:00:12.533Z,102370.55
2018-01-08T04:02:40.131Z,102371.20
2018-01-08T04:05:07.643Z,102375.52
2018-01-08T04:07:35.513Z,102375.27
2018-01-08T04:10:03.065Z,102370.46
2018-01-08T04:12:30.614Z,102372.34
2018-01-08T04:14:58.224Z,102364.45
2018-01-08T04:17:25.817Z,102366.02
2018-01-08T04:19:53.360Z,102364.16
2018-01-08T04:22:20.914Z,102360.02
2018-01-08T04:24:48.436Z,102354.57
2018-01-08T04:27:15.978Z,102348.80
2018-01-08T04:29:43.595Z,102352.30
2018-01-08T04:32:11.158Z,102348.90
2018-01-08T04:34:38.667Z,102345.26
2018-01-08T04:37:06.238Z,102348.27
2018-01-08T04:39:33.762Z,102338.91
2018-01-08T04:42:01.353Z,102333.62
2018-01-08T04:44:28.877Z,102333.91
2018-01-08T04:46:56.387Z,102337.72
2018-01-08T04:49:23.953Z,102338.76
2018-01-08T04:51:51.606Z,102338.59
2018-01-08T04:54:19.218Z,102339.89
2018-01-08T04:56:46.764Z,102336.34
2018-01-08T04:59:14.282Z,102338.36
2018-01-08T05:01:41.872Z,102334.65
2018-01-08T05:04:09.429Z,102341.63
2018-01-08T05:06:36.976Z,102339.19
2018-01-08T05:09:04.568Z,102342.77
2018-01-08T05:11:32.108Z,102334.48
2018-01-08T05:13:59.685Z,102339.77
2018-01-08T05:16:27.285Z,102332.83
2018-01-08T05:18:54.832Z,102331.13
2018-01-08T05:21:22.399Z,102334.81
2018-01-08T05:23:49.921Z,102336.17
2018-01-08T05:26:17.575Z,102339.52
2018-01-08T05:28:45.180Z,102336.19
2018-01-08T05:31:12.724Z,102341.14
2018-01-08T05:33:40.328Z,102341.55
2018-01-08T05:36:07.888Z,102341.55
2018-01-08T05:38:35.448Z,102352.89
2018-01-08T05:41:03.016Z,102344.68
2018-01-08T05:43:30.575Z,102349.06
2018-01-08T05:45:58.148Z,102347.78
2018-01-08T05:48:25.663Z,102348.99
2018-01-08T05:50:53.216Z,102353.56
2018-01-08T05:53:20.754Z,102345.67
2018-01-08T05:55:48.293Z,102344.38
2018-01-08T05:58:15.844Z,102347.06
2018-01-08T06:00:43.550Z,102346.97
2018-01-08T06:03:11.156Z,102339.98
2018-01-08T06:05:39.017Z,102328.87
2018-01-08T06:08:06.588Z,102332.53
2018-01-08T06:10:34.141Z,102325.61
2018-01-08T06:13:01.746Z,102331.78
2018-01-08T06:15:29.269Z,102337.38
2018-01-08T06:17:56.906Z,102337.24
2018-01-08T06:20:24.539Z,102331.28
2018-01-08T06:22:52.088Z,102325.88
2018-01-08T06:25:19.774Z,102329.59
2018-01-08T06:27:47.288Z,102323.59
2018-01-08T06:30:14.809Z,102316.52
2018-01-08T06:32:42.408Z,102320.10
2018-01-08T06:35:09.923Z,102323.34
2018-01-08T06:37:37.617Z,102317.23
2018-01-08T06:40:05.215Z,102321.31
2018-01-08T06:42:32.794Z,102313.44
2018-01-08T06:45:00.367Z,102312.80
2018-01-08T06:47:27.931Z,102309.88
2018-01-08T06:49:55.446Z,102312.63
2018-01-08T06:52:23.035Z,102302.16
2018-01-08T06:54:50.546Z,102305.09
2018-01-08T06:57:18.130Z,102306.53
2018-01-08T06:59:45.680Z,102301.24
2018-01-08T07:02:13.289Z,102302.00
2018-01-08T07:04:40.846Z,102297.52
2018-01-08T07:07:08.400Z,102300.84
2018-01-08T07:09:35.944Z,102307.42
2018-01-08T07:12:03.497Z,102302.31
2018-01-08T07:14:31.142Z,102305.89
2018-01-08T07:16:58.668Z,102310.02
2018-01-08T07:19:26.329Z,102308.23
2018-01-08T07:21:53.894Z,102305.63
2018-01-08T07:24:21.507Z,102310.75
2018-01-08T07:26:49.085Z,102309.06
2018-01-08T07:29:16.666Z,102312.14
2018-01-08T07:31:44.216Z,102307.34
2018-01-08T07:34:11.813Z,102304.66
2018-01-08T07:36:39.337Z,102302.55
2018-01-08T07:39:07.084Z,102304.68
2018-01-08T07:41:34.631Z,102307.11
2018-01-08T07:44:02.227Z,102304.92
2018-01-08T07:46:29.747Z,102297.76
2018-01-08T07:48:57.471Z,102302.47
2018-01-08T07:51:25.025Z,102301.17
2018-01-08T07:53:52.594Z,102306.62
2018-01-08T07:56:20.296Z,102304.75
2018-01-08T07:58:47.950Z,102300.45
2018-01-08T08:01:15.488Z,102300.45
2018-01-08T08:03:43.069Z,102298.40
2018-01-08T08:06:10.611Z,102300.45
2018-01-08T08:08:38.356Z,102292.16
2018-01-08T08:11:05.880Z,102286.07
2018-01-08T08:13:33.414Z,102288.31
2018-01-08T08:16:00.952Z,102287.83
2018-01-08T08:18:28.468Z,102290.11
2018-01-08T08:20:56.039Z,102286.92
2018-01-08T08:23:23.593Z,102287.25
2018-01-08T08:25:51.172Z,102279.53
2018-01-08T08:28:18.684Z,102283.20
2018-01-08T08:30:46.270Z,102287.95
2018-01-08T08:33:13.817Z,102284.14
2018-01-08T08:35:41.404Z,102285.34
2018-01-08T08:38:08.926Z,102276.97
2018-01-08T08:40:36.460Z,102276.47
2018-01-08T08:43:04.154Z,102268.52
2018-01-08T08:45:31.714Z,102272.32
2018-01-08T08:47:59.222Z,102261.66
2018-01-08T08:50:26.814Z,102258.16
2018-01-08T08:52:54.362Z,102264.02
2018-01-08T08:55:21.968Z,102262.75
2018-01-08T08:57:49.491Z,102265.45
2018-01-08T09:00:17.022Z,102260.47
2018-01-08T09:02:44.621Z,102262.25
2018-01-08T09:05:12.177Z,102258.59
2018-01-08T09:07:39.699Z,102253.31
2018-01-08T09:10:07.277Z,102252.62
2018-01-08T09:12:34.877Z,102256.25
2018-01-08T09:15:02.400Z,102258.22
2018-01-08T09:17:29.941Z,102257.05
2018-01-08T09:19:57.562Z,102253.38
2018-01-08T09:22:25.125Z,102243.97
2018-01-08T09:24:52.672Z,102240.08
2018-01-08T09:27:20.244Z,102249.76
2018-01-08T09:29:47.855Z,102248.84
2018-01-08T09:32:15.394Z,102243.27
2018-01-08T09:34:42.939Z,102242.55
2018-01-08T09:37:10.563Z,102234.42
2018-01-08T09:39:38.120Z,102238.25
2018-01-08T09:42:05.644Z,102233.82
2018-01-08T09:44:33.241Z,102229.28
2018-01-08T09:47:00.757Z,102231.55
2018-01-08T09:49:28.306Z,102232.48
2018-01-08T09:51:55.912Z,102234.39
2018-01-08T09:56:50.224Z,102249.09
2018-01-08T09:59:17.767Z,102232.48
2018-01-08T10:01:45.336Z,102231.92
2018-01-08T10:04:24.830Z,102234.80
2018-01-08T10:07:04.461Z,102240.42
2018-01-08T10:09:43.784Z,102235.89
2018-01-08T10:12:23.240Z,102227.11
2018-01-08T10:15:02.848Z,102219.16
2018-01-08T10:17:42.216Z,102212.87
2018-01-08T10:20:09.796Z,102211.19
2018-01-08T10:22:37.336Z,102204.44
2018-01-08T10:25:04.853Z,102199.61
2018-01-08T10:27:32.442Z,102201.86
2018-01-08T10:30:00.030Z,102196.34
2018-01-08T10:32:27.633Z,102193.76
2018-01-08T10:34:55.309Z,102183.89
2018-01-08T10:37:22.906Z,102183.54
2018-01-08T10:39:50.420Z,102188.66
2018-01-08T10:42:23.652Z,102188.02
2018-01-08T10:44:57.040Z,102189.09
2018-01-08T10:47:30.296Z,102190.20
2018-01-08T10:50:03.479Z,102176.78
2018-01-08T10:52:31.073Z,102177.89
2018-01-08T10:55:07.339Z,102171.02
2018-01-08T10:57:34.864Z,102169.86
2018-01-08T11:00:02.416Z,102162.23
2018-01-08T11:02:35.661Z,102157.14
2018-01-08T11:05:03.196Z,102152.77
2018-01-08T11:07:30.791Z,102143.47
2018-01-08T11:09:58.342Z,102144.41
2018-01-08T11:12:25.902Z,102144.89
2018-01-08T11:14:53.448Z,102141.87
2018-01-08T11:17:21.022Z,102130.16
2018-01-08T11:19:48.590Z,102130.59
2018-01-08T11:22:16.118Z,102126.25
2018-01-08T11:24:43.689Z,102118.41
2018-01-08T11:27:11.255Z,102119.34
2018-01-08T11:29:38.779Z,102111.97
2018-01-08T11:32:06.455Z,102112.94
2018-01-08T11:34:34.123Z,102112.13
2018-01-08T11:37:01.690Z,102105.26
2018-01-08T11:39:29.236Z,102092.66
2018-01-08T11:41:56.865Z,102090.94
2018-01-08T11:44:24.412Z,102086.76
2018-01-08T11:46:51.976Z,102073.59
2018-01-08T11:49:19.594Z,102064.47
2018-01-08T11:51:47.133Z,102059.58
2018-01-08T11:54:14.692Z,102049.52
2018-01-08T11:56:42.243Z,102050.20
2018-01-08T11:59:09.845Z,102056.90
2018-01-08T12:01:37.514Z,102055.78
2018-01-08T12:04:05.055Z,102056.10
2018-01-08T12:06:32.786Z,102048.78
2018-01-08T12:09:00.379Z,102042.64
2018-01-08T12:11:27.944Z,102049.80
2018-01-08T12:13:55.518Z,102042.45
2018-01-08T12:16:23.057Z,102039.02
2018-01-08T12:18:50.579Z,102038.53
2018-01-08T12:21:18.128Z,102037.81
2018-01-08T12:23:45.736Z,102037.72
2018-01-08T12:26:13.272Z,102034.83
2018-01-08T12:28:40.791Z,102028.18
2018-01-08T12:31:08.385Z,102033.61
2018-01-08T12:33:35.952Z,102028.59
2018-01-08T12:36:03.519Z,102036.66
2018-01-08T12:38:31.069Z,102016.30
2018-01-08T12:40:58.591Z,102017.54
2018-01-08T12:43:26.148Z,102006.73
2018-01-08T12:45:53.734Z,102011.09
2018-01-08T12:48:21.272Z,102006.36
2018-01-08T12:50:48.873Z,101996.80
2018-01-08T12:53:16.534Z,101992.87
2018-01-08T12:55:44.136Z,101990.44
2018-01-08T12:58:11.652Z,101988.33
2018-01-08T13:00:39.232Z,101985.50
2018-01-08T13:03:06.800Z,101978.85
2018-01-08T13:05:34.355Z,101975.93
2018-01-08T13:08:01.944Z,101967.38
2018-01-08T13:10:29.475Z,101969.09
2018-01-08T13:12:57.072Z,101969.17
2018-01-08T13:15:24.641Z,101971.82
2018-01-08T13:17:52.167Z,101976.73
2018-01-08T13:20:19.985Z,101970.17
2018-01-08T13:22:47.554Z,101967.67
2018-01-08T13:25:15.157Z,101963.73
2018-01-08T13:27:42.717Z,101963.33
2018-01-08T13:30:10.476Z,101961.73
2018-01-08T13:32:38.040Z,101951.84
2018-01-08T13:35:05.635Z,101954.99
2018-01-08T13:37:33.358Z,101952.37
2018-01-08T13:40:00.936Z,101943.91
2018-01-08T13:42:28.756Z,101947.33
2018-01-08T13:44:56.432Z,101959.92
2018-01-08T13:47:24.212Z,101954.16
2018-01-08T13:49:51.774Z,101941.90
2018-01-08T13:52:19.357Z,101942.91
2018-01-08T13:54:47.095Z,101937.77
2018-01-08T13:57:14.798Z,101941.69
2018-01-08T13:59:42.484Z,101931.83
2018-01-08T14:02:10.069Z,101942.61
2018-01-08T14:04:37.625Z,101934.22
2018-01-08T14:07:08.072Z,101926.30
2018-01-08T14:09:35.792Z,101924.68
2018-01-08T14:12:03.516Z,101921.75
2018-01-08T14:14:31.033Z,101922.64
2018-01-08T14:16:58.637Z,101927.79
2018-01-08T14:19:26.551Z,101927.48
2018-01-08T14:21:54.100Z,101930.62
2018-01-08T14:24:21.635Z,101933.64
2018-01-08T14:26:49.172Z,101927.08
2018-01-08T14:29:16.732Z,101925.37
2018-01-08T14:31:44.333Z,101930.31
2018-01-08T14:34:11.860Z,101921.34
2018-01-08T14:36:39.553Z,101915.20
2018-01-08T14:39:07.104Z,101921.76
2018-01-08T14:41:34.637Z,101919.04
2018-01-08T14:44:03.261Z,101911.18
2018-01-08T14:46:30.871Z,101912.59
2018-01-08T14:48:58.504Z,101906.77
2018-01-08T14:51:26.044Z,101921.14
2018-01-08T14:53:53.602Z,101916.91
2018-01-08T14:56:21.176Z,101914.40
2018-01-08T14:58:48.755Z,101912.17
2018-01-08T15:01:16.316Z,101904.13
2018-01-08T15:03:44.090Z,101917.62
2018-01-08T15:06:11.818Z,101915.91
2018-01-08T15:08:39.405Z,101908.73
2018-01-08T15:11:06.986Z,101911.76
2018-01-08T15:13:34.569Z,101915.66
2018-01-08T15:16:02.253Z,101908.63
2018-01-08T15:18:29.833Z,101906.38
2018-01-08T15:20:57.407Z,101896.04
2018-01-08T15:23:24.952Z,101898.02
2018-01-08T15:25:52.488Z,101898.63
2018-01-08T15:28:20.024Z,101903.02
2018-01-08T15:30:47.580Z,101893.11
2018-01-08T15:33:15.180Z,101894.70
2018-01-08T15:35:42.740Z,101894.98
2018-01-08T15:38:10.282Z,101888.05
2018-01-08T15:40:37.897Z,101876.35
2018-01-08T15:43:05.441Z,101887.42
2018-01-08T15:45:32.983Z,101889.40
2018-01-08T15:48:00.568Z,101881.67
2018-01-08T15:50:28.079Z,101880.74
2018-01-08T15:52:55.593Z,101878.21
2018-01-08T15:55:23.156Z,101873.81
2018-01-08T15:57:50.792Z,101882.07
2018-01-08T16:00:18.423Z,101884.45
2018-01-08T16:02:46.045Z,101877.99
2018-01-08T16:05:13.580Z,101880.87
2018-01-08T16:07:41.186Z,101879.17
2018-01-08T16:10:08.741Z,101884.59
2018-01-08T16:12:36.282Z,101877.55
2018-01-08T16:15:03.848Z,101876.48
2018-01-08T16:17:31.429Z,101879.66
2018-01-08T16:19:58.934Z,101878.08
2018-01-08T16:22:26.510Z,101865.80
2018-01-08T16:24:54.020Z,101867.00
2018-01-08T16:27:21.562Z,101867.47
2018-01-08T16:29:49.076Z,101856.33
2018-01-08T16:32:16.652Z,101862.56
2018-01-08T16:34:44.201Z,101863.47
2018-01-08T16:37:11.722Z,101860.22
2018-01-08T16:39:39.426Z,101860.13
2018-01-08T16:42:07.006Z,101853.86
2018-01-08T16:44:34.548Z,101860.80
2018-01-08T16:47:02.117Z,101868.93
2018-01-08T16:49:29.674Z,101859.66
2018-01-08T16:51:57.189Z,101856.00
2018-01-08T16:54:24.734Z,101854.16
2018-01-08T16:56:52.316Z,101870.94
2018-01-08T16:59:19.823Z,101861.49
2018-01-08T17:01:47.384Z,101857.47
2018-01-08T17:04:15.925Z,101854.05
2018-01-08T17:06:43.540Z,101861.80
2018-01-08T17:09:11.046Z,101852.53
2018-01-08T17:11:38.560Z,101852.91
2018-01-08T17:14:06.139Z,101848.99
2018-01-08T17:16:33.687Z,101844.77
2018-01-08T17:19:01.241Z,101846.56
2018-01-08T17:21:28.884Z,101841.86
2018-01-08T17:23:56.697Z,101827.27
2018-01-08T17:26:24.256Z,101832.56
2018-01-08T17:28:51.809Z,101828.84
2018-01-08T17:31:19.394Z,101822.22
2018-01-08T17:33:47.032Z,101822.41
2018-01-08T17:36:14.745Z,101813.52
2018-01-08T17:38:42.278Z,101819.16
2018-01-08T17:41:09.838Z,101817.98
2018-01-08T17:43:37.442Z,101814.57
2018-01-08T17:46:05.027Z,101810.55
2018-01-08T17:48:32.604Z,101834.13
2018-01-08T17:51:00.280Z,101809.52
2018-01-08T17:53:28.003Z,101807.81
2018-01-08T17:55:55.599Z,101805.98
2018-01-08T17:58:23.310Z,101803.63
2018-01-08T18:00:50.823Z,101804.40
2018-01-08T18:03:18.457Z,101801.98
2018-01-08T18:05:45.976Z,101803.22
2018-01-08T18:08:13.705Z,101808.22
2018-01-08T18:10:41.358Z,101809.30
2018-01-08T18:13:08.941Z,101808.53
2018-01-08T18:15:36.623Z,101813.66
2018-01-08T18:18:04.300Z,101809.20
2018-01-08T18:20:31.865Z,101817.97
2018-01-08T18:22:59.408Z,101808.86
2018-01-08T18:25:27.020Z,101806.20
2018-01-08T18:27:54.608Z,101799.39
2018-01-08T18:30:22.186Z,101799.47
2018-01-08T18:32:49.728Z,101796.27
2018-01-08T18:35:17.320Z,101782.41
2018-01-08T18:37:44.867Z,101779.57
2018-01-08T18:40:12.390Z,101780.15
2018-01-08T18:42:39.953Z,101776.08
2018-01-08T18:45:07.476Z,101781.41
2018-01-08T18:47:35.020Z,101774.98
2018-01-08T18:50:02.569Z,101781.50
2018-01-08T18:52:30.205Z,101776.39
2018-01-08T18:54:57.727Z,101766.45
2018-01-08T18:57:25.472Z,101751.89
2018-01-08T18:59:53.043Z,101747.89
2018-01-08T19:02:20.580Z,101753.23
2018-01-08T19:04:48.144Z,101736.72
2018-01-08T19:07:15.717Z,101747.94
2018-01-08T19:09:43.290Z,101743.97
2018-01-08T19:12:10.840Z,101742.73
2018-01-08T19:14:38.540Z,101734.81
2018-01-08T19:17:06.116Z,101747.16
2018-01-08T19:19:33.834Z,101738.03
2018-01-08T19:22:01.457Z,101740.94
2018-01-08T19:24:29.021Z,101732.66
2018-01-08T19:26:56.547Z,101731.48
2018-01-08T19:29:24.223Z,101730.50
2018-01-08T19:31:51.772Z,101739.50
2018-01-08T19:34:19.323Z,101732.68
2018-01-08T19:36:46.885Z,101729.49
2018-01-08T19:39:14.578Z,101731.10
2018-01-08T19:41:42.137Z,101728.16
2018-01-08T19:44:09.722Z,101729.88
2018-01-08T19:46:37.341Z,101714.90
2018-01-08T19:49:04.880Z,101711.11
2018-01-08T19:51:32.591Z,101716.52
2018-01-08T19:54:00.142Z,101717.73
2018-01-08T19:56:27.722Z,101720.46
2018-01-08T19:58:55.270Z,101717.01
2018-01-08T20:01:22.824Z,101712.56
2018-01-08T20:03:50.667Z,101718.41
2018-01-08T20:06:18.220Z,101715.30
2018-01-08T20:08:45.807Z,101707.47
2018-01-08T20:11:13.386Z,101709.78
2018-01-08T20:13:41.053Z,101709.50
2018-01-08T20:16:08.670Z,101707.80
2018-01-08T20:18:36.311Z,101701.75
2018-01-08T20:21:03.889Z,101704.48
2018-01-08T20:23:31.523Z,101696.46
2018-01-08T20:25:59.124Z,101688.89
2018-01-08T20:28:26.644Z,101686.59
2018-01-08T20:30:54.242Z,101688.80
2018-01-08T20:33:21.801Z,101678.09
2018-01-08T20:35:49.391Z,101671.97
2018-01-08T20:38:16.942Z,101678.89
2018-01-08T20:40:44.488Z,101683.02
2018-01-08T20:43:12.059Z,101679.55
2018-01-08T20:45:39.623Z,101666.78
2018-01-08T20:48:07.135Z,101680.03
2018-01-08T20:50:34.700Z,101669.69
2018-01-08T20:53:02.214Z,101656.76
2018-01-08T20:55:29.765Z,101655.66
2018-01-08T20:57:57.342Z,101657.28
2018-01-08T21:00:24.944Z,101645.34
2018-01-08T21:02:52.497Z,101639.09
2018-01-08T21:05:20.092Z,101639.09
2018-01-08T21:07:47.633Z,101616.31
2018-01-08T21:10:15.176Z,101614.78
2018-01-08T21:12:42.798Z,101618.62
2018-01-08T21:15:10.413Z,101609.98
2018-01-08T21:17:37.924Z,101604.95
2018-01-08T21:20:05.542Z,101601.14
2018-01-08T21:22:33.190Z,101596.81
2018-01-08T21:25:00.745Z,101608.03
2018-01-08T21:27:28.312Z,101603.33
2018-01-08T21:29:55.865Z,101597.00
2018-01-08T21:32:23.408Z,101587.88
2018-01-08T21:34:50.941Z,101579.33
2018-01-08T21:37:18.542Z,101573.20
2018-01-08T21:39:46.161Z,101579.92
2018-01-08T21:42:13.701Z,101576.30
2018-01-08T21:44:41.302Z,101568.07
2018-01-08T21:47:08.888Z,101561.53
2018-01-08T21:49:36.452Z,101571.97
2018-01-08T21:52:03.978Z,101566.06
2018-01-08T21:54:31.522Z,101567.98
2018-01-08T21:56:59.060Z,101568.64
2018-01-08T21:59:26.624Z,101561.44
2018-01-08T22:01:54.231Z,101567.44
2018-01-08T22:04:22.630Z,101557.72
2018-01-08T22:06:50.165Z,101561.23
2018-01-08T22:09:17.731Z,101557.42
2018-01-08T22:11:45.235Z,101555.30
2018-01-08T22:14:12.765Z,101551.78
2018-01-08T22:16:40.398Z,101551.39
2018-01-08T22:19:08.095Z,101546.28
2018-01-08T22:21:35.609Z,101530.12
2018-01-08T22:24:03.200Z,101534.24
2018-01-08T22:26:30.753Z,101534.52
2018-01-08T22:28:58.260Z,101533.32
2018-01-08T22:31:25.786Z,101536.65
2018-01-08T22:33:53.329Z,101528.59
2018-01-08T22:36:20.973Z,101520.88
2018-01-08T22:38:48.509Z,101512.13
2018-01-08T22:41:16.121Z,101515.15
2018-01-08T22:43:43.640Z,101519.38
2018-01-08T22:46:11.174Z,101513.16
2018-01-08T22:48:38.738Z,101498.80
2018-01-08T22:51:06.304Z,101494.27
2018-01-08T22:53:33.922Z,101487.86
2018-01-08T22:56:01.536Z,101489.25
2018-01-08T22:58:29.121Z,101477.60
2018-01-08T23:00:56.677Z,101476.70
2018-01-08T23:03:24.215Z,101474.61
2018-01-08T23:05:51.744Z,101467.77
2018-01-08T23:08:19.308Z,101463.85
2018-01-08T23:10:46.847Z,101449.81
2018-01-08T23:13:14.499Z,101443.79
2018-01-08T23:15:42.011Z,101444.91
2018-01-08T23:18:09.565Z,101437.96
2018-01-08T23:20:37.128Z,101430.05
2018-01-08T23:23:04.735Z,101422.51
2018-01-08T23:25:32.271Z,101419.09
2018-01-08T23:27:59.785Z,101417.52
2018-01-08T23:30:27.320Z,101421.32
2018-01-08T23:32:54.979Z,101402.64
2018-01-08T23:35:22.532Z,101408.77
2018-01-08T23:37:50.236Z,101422.70
2018-01-08T23:40:17.824Z,101398.03
2018-01-08T23:42:45.408Z,101395.22
2018-01-08T23:45:12.955Z,101389.63
2018-01-08T23:47:40.552Z,101382.19
2018-01-08T23:50:08.108Z,101387.41
2018-01-08T23:52:35.624Z,101372.75
2018-01-08T23:55:03.151Z,101376.08
2018-01-08T23:57:30.749Z,101365.23
2018-01-08T23:59:58.265Z,101365.64
